sensor_id;sensor_type;location;lat;lon;timestamp;temperature;humidity
8988;DHT22;4529;51.360;12.474;2023-07-02T00:01:06;19.20;99.90
8988;DHT22;4529;51.360;12.474;2023-07-02T00:06:09;19.20;99.90
8988;DHT22;4529;51.360;12.474;2023-07-02T00:11:15;19.20;99.90
8988;DHT22;4529;51.360;12.474;2023-07-02T00:16:17;19.20;99.90
8988;DHT22;4529;51.360;12.474;2023-07-02T00:21:20;19.20;99.90
8988;DHT22;4529;51.360;12.474;2023-07-02T00:26:26;19.30;99.90
8988;DHT22;4529;51.360;12.474;2023-07-02T00:31:29;19.30;99.90
8988;DHT22;4529;51.360;12.474;2023-07-02T00:36:33;19.20;99.90
8988;DHT22;4529;51.360;12.474;2023-07-02T00:41:36;19.30;99.90
8988;DHT22;4529;51.360;12.474;2023-07-02T00:46:40;19.30;99.90
8988;DHT22;4529;51.360;12.474;2023-07-02T00:51:43;19.30;99.90
8988;DHT22;4529;51.360;12.474;2023-07-02T00:56:47;19.40;99.90
8988;DHT22;4529;51.360;12.474;2023-07-02T01:01:50;19.30;99.90
8988;DHT22;4529;51.360;12.474;2023-07-02T01:06:54;19.50;99.90
8988;DHT22;4529;51.360;12.474;2023-07-02T01:11:59;19.40;99.90
8988;DHT22;4529;51.360;12.474;2023-07-02T01:17:02;19.40;99.90
8988;DHT22;4529;51.360;12.474;2023-07-02T01:22:06;19.50;99.90
8988;DHT22;4529;51.360;12.474;2023-07-02T01:27:10;19.40;99.90
8988;DHT22;4529;51.360;12.474;2023-07-02T01:32:14;19.40;99.90
8988;DHT22;4529;51.360;12.474;2023-07-02T01:37:18;19.30;99.90
8988;DHT22;4529;51.360;12.474;2023-07-02T01:42:21;19.30;99.90
8988;DHT22;4529;51.360;12.474;2023-07-02T01:47:25;19.30;99.90
8988;DHT22;4529;51.360;12.474;2023-07-02T01:52:29;19.20;99.90
8988;DHT22;4529;51.360;12.474;2023-07-02T01:57:33;19.20;99.90
8988;DHT22;4529;51.360;12.474;2023-07-02T02:02:36;19.10;99.90
8988;DHT22;4529;51.360;12.474;2023-07-02T02:07:40;19.20;99.90
8988;DHT22;4529;51.360;12.474;2023-07-02T02:12:44;19.20;99.90
8988;DHT22;4529;51.360;12.474;2023-07-02T02:17:48;19.20;99.90
8988;DHT22;4529;51.360;12.474;2023-07-02T02:22:52;19.30;99.90
8988;DHT22;4529;51.360;12.474;2023-07-02T02:27:56;19.20;99.90
8988;DHT22;4529;51.360;12.474;2023-07-02T02:33:00;19.20;99.90
8988;DHT22;4529;51.360;12.474;2023-07-02T02:38:04;19.30;99.90
8988;DHT22;4529;51.360;12.474;2023-07-02T02:43:07;19.20;99.90
8988;DHT22;4529;51.360;12.474;2023-07-02T02:48:11;19.20;99.90
8988;DHT22;4529;51.360;12.474;2023-07-02T02:53:15;19.20;99.90
8988;DHT22;4529;51.360;12.474;2023-07-02T02:58:19;19.20;99.90
8988;DHT22;4529;51.360;12.474;2023-07-02T03:03:24;19.10;99.90
8988;DHT22;4529;51.360;12.474;2023-07-02T03:08:28;19.20;99.90
8988;DHT22;4529;51.360;12.474;2023-07-02T03:13:32;19.10;99.90
8988;DHT22;4529;51.360;12.474;2023-07-02T03:18:36;19.10;99.90
8988;DHT22;4529;51.360;12.474;2023-07-02T03:23:40;19.10;99.90
8988;DHT22;4529;51.360;12.474;2023-07-02T03:28:44;19.10;99.90
8988;DHT22;4529;51.360;12.474;2023-07-02T03:33:48;19.00;99.90
8988;DHT22;4529;51.360;12.474;2023-07-02T03:38:52;19.00;99.90
8988;DHT22;4529;51.360;12.474;2023-07-02T03:43:57;19.00;99.90
8988;DHT22;4529;51.360;12.474;2023-07-02T03:49:01;19.00;99.90
8988;DHT22;4529;51.360;12.474;2023-07-02T03:54:05;19.00;99.90
8988;DHT22;4529;51.360;12.474;2023-07-02T03:59:09;18.90;99.90
8988;DHT22;4529;51.360;12.474;2023-07-02T04:04:13;19.00;99.90
8988;DHT22;4529;51.360;12.474;2023-07-02T04:09:17;19.00;99.90
8988;DHT22;4529;51.360;12.474;2023-07-02T04:14:21;18.90;99.90
8988;DHT22;4529;51.360;12.474;2023-07-02T04:19:25;19.00;99.90
8988;DHT22;4529;51.360;12.474;2023-07-02T04:24:30;19.00;99.90
8988;DHT22;4529;51.360;12.474;2023-07-02T04:29:34;18.90;99.90
8988;DHT22;4529;51.360;12.474;2023-07-02T04:34:38;18.90;99.90
8988;DHT22;4529;51.360;12.474;2023-07-02T04:39:42;18.90;99.90
8988;DHT22;4529;51.360;12.474;2023-07-02T04:44:46;18.80;99.90
8988;DHT22;4529;51.360;12.474;2023-07-02T04:49:50;18.70;99.90
8988;DHT22;4529;51.360;12.474;2023-07-02T04:54:54;18.60;99.90
8988;DHT22;4529;51.360;12.474;2023-07-02T04:59:58;18.60;99.90
8988;DHT22;4529;51.360;12.474;2023-07-02T05:05:03;18.60;99.90
8988;DHT22;4529;51.360;12.474;2023-07-02T05:10:06;18.60;99.90
8988;DHT22;4529;51.360;12.474;2023-07-02T05:15:10;18.60;99.90
8988;DHT22;4529;51.360;12.474;2023-07-02T05:20:13;18.80;99.90
8988;DHT22;4529;51.360;12.474;2023-07-02T05:25:17;18.90;99.90
8988;DHT22;4529;51.360;12.474;2023-07-02T05:30:21;19.20;99.90
8988;DHT22;4529;51.360;12.474;2023-07-02T05:35:25;19.30;99.90
8988;DHT22;4529;51.360;12.474;2023-07-02T05:40:29;19.30;99.90
8988;DHT22;4529;51.360;12.474;2023-07-02T05:45:33;19.40;99.90
8988;DHT22;4529;51.360;12.474;2023-07-02T05:50:37;19.40;99.90
8988;DHT22;4529;51.360;12.474;2023-07-02T05:55:41;19.50;99.90
8988;DHT22;4529;51.360;12.474;2023-07-02T06:00:45;19.60;99.90
8988;DHT22;4529;51.360;12.474;2023-07-02T06:05:50;19.60;99.90
8988;DHT22;4529;51.360;12.474;2023-07-02T06:10:54;19.60;99.90
8988;DHT22;4529;51.360;12.474;2023-07-02T06:15:58;19.80;99.90
8988;DHT22;4529;51.360;12.474;2023-07-02T06:21:02;20.00;99.90
8988;DHT22;4529;51.360;12.474;2023-07-02T06:26:06;20.20;99.90
8988;DHT22;4529;51.360;12.474;2023-07-02T06:31:10;20.60;99.90
8988;DHT22;4529;51.360;12.474;2023-07-02T06:36:14;20.70;99.90
8988;DHT22;4529;51.360;12.474;2023-07-02T06:41:19;20.70;99.90
8988;DHT22;4529;51.360;12.474;2023-07-02T06:46:23;21.00;99.90
8988;DHT22;4529;51.360;12.474;2023-07-02T06:51:27;21.30;99.90
8988;DHT22;4529;51.360;12.474;2023-07-02T06:56:31;21.40;99.90
8988;DHT22;4529;51.360;12.474;2023-07-02T07:01:35;21.80;99.90
8988;DHT22;4529;51.360;12.474;2023-07-02T07:06:39;21.90;99.90
8988;DHT22;4529;51.360;12.474;2023-07-02T07:11:44;21.90;99.90
8988;DHT22;4529;51.360;12.474;2023-07-02T07:16:47;22.00;99.90
8988;DHT22;4529;51.360;12.474;2023-07-02T07:21:52;22.10;99.90
8988;DHT22;4529;51.360;12.474;2023-07-02T07:26:56;22.10;99.90
8988;DHT22;4529;51.360;12.474;2023-07-02T07:32:00;21.90;99.90
8988;DHT22;4529;51.360;12.474;2023-07-02T07:37:04;21.80;99.90
8988;DHT22;4529;51.360;12.474;2023-07-02T07:42:08;21.80;99.90
8988;DHT22;4529;51.360;12.474;2023-07-02T07:47:11;21.70;99.90
8988;DHT22;4529;51.360;12.474;2023-07-02T07:52:15;21.60;99.90
8988;DHT22;4529;51.360;12.474;2023-07-02T07:57:18;21.50;99.90
8988;DHT22;4529;51.360;12.474;2023-07-02T08:02:21;21.50;99.90
8988;DHT22;4529;51.360;12.474;2023-07-02T08:07:25;21.60;99.90
8988;DHT22;4529;51.360;12.474;2023-07-02T08:12:28;21.80;99.90
8988;DHT22;4529;51.360;12.474;2023-07-02T08:17:32;21.80;99.90
8988;DHT22;4529;51.360;12.474;2023-07-02T08:22:39;21.60;99.90
8988;DHT22;4529;51.360;12.474;2023-07-02T08:27:42;21.60;99.90
8988;DHT22;4529;51.360;12.474;2023-07-02T08:32:45;21.50;99.90
8988;DHT22;4529;51.360;12.474;2023-07-02T08:37:49;21.40;99.90
8988;DHT22;4529;51.360;12.474;2023-07-02T08:42:53;21.40;99.90
8988;DHT22;4529;51.360;12.474;2023-07-02T08:47:56;21.50;99.90
8988;DHT22;4529;51.360;12.474;2023-07-02T08:53:01;21.70;99.90
8988;DHT22;4529;51.360;12.474;2023-07-02T08:58:04;21.60;99.90
8988;DHT22;4529;51.360;12.474;2023-07-02T09:03:13;21.60;99.90
8988;DHT22;4529;51.360;12.474;2023-07-02T09:08:26;21.50;99.90
8988;DHT22;4529;51.360;12.474;2023-07-02T09:13:27;21.50;99.90
8988;DHT22;4529;51.360;12.474;2023-07-02T09:18:30;21.40;99.90
8988;DHT22;4529;51.360;12.474;2023-07-02T09:23:34;21.40;99.90
8988;DHT22;4529;51.360;12.474;2023-07-02T09:28:37;21.40;99.90
8988;DHT22;4529;51.360;12.474;2023-07-02T09:33:41;21.40;99.90
8988;DHT22;4529;51.360;12.474;2023-07-02T09:38:44;21.40;99.90
8988;DHT22;4529;51.360;12.474;2023-07-02T09:43:48;21.50;99.90
8988;DHT22;4529;51.360;12.474;2023-07-02T09:48:51;21.70;99.90
8988;DHT22;4529;51.360;12.474;2023-07-02T09:53:54;22.50;99.90
8988;DHT22;4529;51.360;12.474;2023-07-02T09:58:58;22.60;99.90
8988;DHT22;4529;51.360;12.474;2023-07-02T10:04:16;22.50;99.90
8988;DHT22;4529;51.360;12.474;2023-07-02T10:09:20;22.30;99.90
8988;DHT22;4529;51.360;12.474;2023-07-02T10:14:23;22.10;99.90
8988;DHT22;4529;51.360;12.474;2023-07-02T10:19:26;22.00;99.90
8988;DHT22;4529;51.360;12.474;2023-07-02T10:24:30;22.10;99.90
8988;DHT22;4529;51.360;12.474;2023-07-02T10:29:33;22.60;99.90
8988;DHT22;4529;51.360;12.474;2023-07-02T10:34:36;23.10;99.90
8988;DHT22;4529;51.360;12.474;2023-07-02T10:39:41;23.40;99.90
8988;DHT22;4529;51.360;12.474;2023-07-02T10:44:52;23.80;99.90
8988;DHT22;4529;51.360;12.474;2023-07-02T10:49:56;24.10;99.90
8988;DHT22;4529;51.360;12.474;2023-07-02T10:54:59;24.20;99.90
8988;DHT22;4529;51.360;12.474;2023-07-02T11:00:06;24.40;99.90
8988;DHT22;4529;51.360;12.474;2023-07-02T11:05:10;24.10;99.90
8988;DHT22;4529;51.360;12.474;2023-07-02T11:10:20;23.50;99.90
8988;DHT22;4529;51.360;12.474;2023-07-02T11:15:24;23.10;99.90
8988;DHT22;4529;51.360;12.474;2023-07-02T11:20:28;22.80;99.90
8988;DHT22;4529;51.360;12.474;2023-07-02T11:25:32;22.70;99.90
8988;DHT22;4529;51.360;12.474;2023-07-02T11:30:44;22.70;99.90
8988;DHT22;4529;51.360;12.474;2023-07-02T11:35:39;23.00;99.90
8988;DHT22;4529;51.360;12.474;2023-07-02T11:40:43;23.20;99.90
8988;DHT22;4529;51.360;12.474;2023-07-02T11:45:46;23.20;99.90
8988;DHT22;4529;51.360;12.474;2023-07-02T11:50:50;23.40;99.90
8988;DHT22;4529;51.360;12.474;2023-07-02T11:55:53;23.20;99.90
8988;DHT22;4529;51.360;12.474;2023-07-02T12:00:57;23.00;99.90
8988;DHT22;4529;51.360;12.474;2023-07-02T12:06:01;23.00;99.90
8988;DHT22;4529;51.360;12.474;2023-07-02T12:11:04;23.10;99.90
8988;DHT22;4529;51.360;12.474;2023-07-02T12:16:08;23.70;99.90
8988;DHT22;4529;51.360;12.474;2023-07-02T12:21:12;23.70;99.90
8988;DHT22;4529;51.360;12.474;2023-07-02T12:26:15;23.90;99.90
8988;DHT22;4529;51.360;12.474;2023-07-02T12:31:19;23.90;99.90
8988;DHT22;4529;51.360;12.474;2023-07-02T12:36:22;24.00;99.90
8988;DHT22;4529;51.360;12.474;2023-07-02T12:41:25;23.90;99.90
8988;DHT22;4529;51.360;12.474;2023-07-02T12:46:29;23.90;99.90
8988;DHT22;4529;51.360;12.474;2023-07-02T12:51:32;23.70;99.90
8988;DHT22;4529;51.360;12.474;2023-07-02T12:56:36;24.10;99.90
8988;DHT22;4529;51.360;12.474;2023-07-02T13:01:39;24.10;99.90
8988;DHT22;4529;51.360;12.474;2023-07-02T13:06:43;24.10;99.90
8988;DHT22;4529;51.360;12.474;2023-07-02T13:11:46;24.00;99.90
8988;DHT22;4529;51.360;12.474;2023-07-02T13:16:50;24.10;99.90
8988;DHT22;4529;51.360;12.474;2023-07-02T13:21:53;24.20;99.90
8988;DHT22;4529;51.360;12.474;2023-07-02T13:26:57;24.30;99.90
8988;DHT22;4529;51.360;12.474;2023-07-02T13:32:00;24.00;99.90
8988;DHT22;4529;51.360;12.474;2023-07-02T13:37:05;23.80;99.90
8988;DHT22;4529;51.360;12.474;2023-07-02T13:42:09;23.80;99.90
8988;DHT22;4529;51.360;12.474;2023-07-02T13:47:13;24.00;99.90
8988;DHT22;4529;51.360;12.474;2023-07-02T13:52:17;23.90;99.90
8988;DHT22;4529;51.360;12.474;2023-07-02T13:57:22;23.80;99.90
8988;DHT22;4529;51.360;12.474;2023-07-02T14:02:25;23.70;99.90
8988;DHT22;4529;51.360;12.474;2023-07-02T14:07:29;23.70;99.90
8988;DHT22;4529;51.360;12.474;2023-07-02T14:12:33;23.70;99.90
8988;DHT22;4529;51.360;12.474;2023-07-02T14:17:38;23.70;99.90
8988;DHT22;4529;51.360;12.474;2023-07-02T14:22:42;23.80;99.90
8988;DHT22;4529;51.360;12.474;2023-07-02T14:27:47;23.70;99.90
8988;DHT22;4529;51.360;12.474;2023-07-02T14:32:50;23.70;99.90
8988;DHT22;4529;51.360;12.474;2023-07-02T14:37:54;23.50;99.90
8988;DHT22;4529;51.360;12.474;2023-07-02T14:42:58;23.60;99.90
8988;DHT22;4529;51.360;12.474;2023-07-02T14:48:02;23.50;99.90
8988;DHT22;4529;51.360;12.474;2023-07-02T14:53:06;23.50;99.90
8988;DHT22;4529;51.360;12.474;2023-07-02T14:58:11;23.60;99.70
8988;DHT22;4529;51.360;12.474;2023-07-02T15:03:15;23.50;99.90
8988;DHT22;4529;51.360;12.474;2023-07-02T15:08:19;23.60;99.80
8988;DHT22;4529;51.360;12.474;2023-07-02T15:13:23;23.50;99.10
8988;DHT22;4529;51.360;12.474;2023-07-02T15:18:27;23.60;99.90
8988;DHT22;4529;51.360;12.474;2023-07-02T15:23:31;23.50;99.20
8988;DHT22;4529;51.360;12.474;2023-07-02T15:28:35;23.60;99.20
8988;DHT22;4529;51.360;12.474;2023-07-02T15:33:38;23.70;99.90
8988;DHT22;4529;51.360;12.474;2023-07-02T15:38:41;23.60;99.60
8988;DHT22;4529;51.360;12.474;2023-07-02T15:43:45;23.60;99.80
8988;DHT22;4529;51.360;12.474;2023-07-02T15:48:48;23.60;99.50
8988;DHT22;4529;51.360;12.474;2023-07-02T15:53:52;23.60;99.70
8988;DHT22;4529;51.360;12.474;2023-07-02T15:58:55;23.50;99.60
8988;DHT22;4529;51.360;12.474;2023-07-02T16:03:59;23.60;99.40
8988;DHT22;4529;51.360;12.474;2023-07-02T16:09:03;23.60;98.00
8988;DHT22;4529;51.360;12.474;2023-07-02T16:14:09;23.60;99.00
8988;DHT22;4529;51.360;12.474;2023-07-02T16:19:13;23.50;99.00
8988;DHT22;4529;51.360;12.474;2023-07-02T16:24:23;23.40;99.00
8988;DHT22;4529;51.360;12.474;2023-07-02T16:29:35;23.40;98.00
8988;DHT22;4529;51.360;12.474;2023-07-02T16:34:38;23.30;97.40
8988;DHT22;4529;51.360;12.474;2023-07-02T16:39:41;23.40;97.20
8988;DHT22;4529;51.360;12.474;2023-07-02T16:44:45;23.50;97.40
8988;DHT22;4529;51.360;12.474;2023-07-02T16:49:48;23.70;96.30
8988;DHT22;4529;51.360;12.474;2023-07-02T16:54:52;23.60;96.20
8988;DHT22;4529;51.360;12.474;2023-07-02T16:59:55;23.50;96.30
8988;DHT22;4529;51.360;12.474;2023-07-02T17:04:59;23.20;97.30
8988;DHT22;4529;51.360;12.474;2023-07-02T17:10:02;23.10;98.30
8988;DHT22;4529;51.360;12.474;2023-07-02T17:15:06;22.90;97.40
8988;DHT22;4529;51.360;12.474;2023-07-02T17:20:09;22.90;97.90
8988;DHT22;4529;51.360;12.474;2023-07-02T17:25:13;22.80;97.30
8988;DHT22;4529;51.360;12.474;2023-07-02T17:30:16;22.70;97.60
8988;DHT22;4529;51.360;12.474;2023-07-02T17:35:20;22.50;99.50
8988;DHT22;4529;51.360;12.474;2023-07-02T17:40:23;22.40;98.90
8988;DHT22;4529;51.360;12.474;2023-07-02T17:45:27;22.50;97.90
8988;DHT22;4529;51.360;12.474;2023-07-02T17:50:30;22.60;97.60
8988;DHT22;4529;51.360;12.474;2023-07-02T17:55:34;22.50;99.00
8988;DHT22;4529;51.360;12.474;2023-07-02T18:00:37;22.40;99.90
8988;DHT22;4529;51.360;12.474;2023-07-02T18:05:41;22.50;99.10
8988;DHT22;4529;51.360;12.474;2023-07-02T18:10:47;22.10;99.90
8988;DHT22;4529;51.360;12.474;2023-07-02T18:15:50;21.90;99.90
8988;DHT22;4529;51.360;12.474;2023-07-02T18:20:54;21.80;99.90
8988;DHT22;4529;51.360;12.474;2023-07-02T18:25:58;21.80;99.90
8988;DHT22;4529;51.360;12.474;2023-07-02T18:31:02;21.80;99.90
8988;DHT22;4529;51.360;12.474;2023-07-02T18:36:08;21.80;99.90
8988;DHT22;4529;51.360;12.474;2023-07-02T18:41:09;21.70;99.90
8988;DHT22;4529;51.360;12.474;2023-07-02T18:46:12;21.60;99.90
8988;DHT22;4529;51.360;12.474;2023-07-02T18:51:15;21.50;99.90
8988;DHT22;4529;51.360;12.474;2023-07-02T18:56:19;21.50;99.90
8988;DHT22;4529;51.360;12.474;2023-07-02T19:01:22;21.30;99.90
8988;DHT22;4529;51.360;12.474;2023-07-02T19:06:26;21.20;99.90
8988;DHT22;4529;51.360;12.474;2023-07-02T19:11:29;21.10;99.90
8988;DHT22;4529;51.360;12.474;2023-07-02T19:16:33;21.00;99.90
8988;DHT22;4529;51.360;12.474;2023-07-02T19:21:37;21.00;99.90
8988;DHT22;4529;51.360;12.474;2023-07-02T19:26:40;21.00;99.90
8988;DHT22;4529;51.360;12.474;2023-07-02T19:31:45;20.80;99.90
8988;DHT22;4529;51.360;12.474;2023-07-02T19:36:48;20.80;99.90
8988;DHT22;4529;51.360;12.474;2023-07-02T19:41:52;20.70;99.90
8988;DHT22;4529;51.360;12.474;2023-07-02T19:46:55;20.60;99.90
8988;DHT22;4529;51.360;12.474;2023-07-02T19:51:59;20.60;99.90
8988;DHT22;4529;51.360;12.474;2023-07-02T19:57:02;20.50;99.90
8988;DHT22;4529;51.360;12.474;2023-07-02T20:02:06;20.40;99.90
8988;DHT22;4529;51.360;12.474;2023-07-02T20:07:09;20.40;99.90
8988;DHT22;4529;51.360;12.474;2023-07-02T20:12:13;20.40;99.90
8988;DHT22;4529;51.360;12.474;2023-07-02T20:17:16;20.40;99.90
8988;DHT22;4529;51.360;12.474;2023-07-02T20:22:20;20.40;99.90
8988;DHT22;4529;51.360;12.474;2023-07-02T20:27:24;20.30;99.90
8988;DHT22;4529;51.360;12.474;2023-07-02T20:32:26;20.30;99.90
8988;DHT22;4529;51.360;12.474;2023-07-02T20:37:30;20.20;99.90
8988;DHT22;4529;51.360;12.474;2023-07-02T20:42:33;20.10;99.90
8988;DHT22;4529;51.360;12.474;2023-07-02T20:47:37;20.00;99.90
8988;DHT22;4529;51.360;12.474;2023-07-02T20:52:40;20.00;99.90
8988;DHT22;4529;51.360;12.474;2023-07-02T20:57:44;19.90;99.90
8988;DHT22;4529;51.360;12.474;2023-07-02T21:02:47;19.70;99.90
8988;DHT22;4529;51.360;12.474;2023-07-02T21:07:51;19.50;99.90
8988;DHT22;4529;51.360;12.474;2023-07-02T21:12:54;19.40;99.90
8988;DHT22;4529;51.360;12.474;2023-07-02T21:17:58;19.30;99.90
8988;DHT22;4529;51.360;12.474;2023-07-02T21:23:01;19.00;99.90
8988;DHT22;4529;51.360;12.474;2023-07-02T21:28:04;18.80;99.90
8988;DHT22;4529;51.360;12.474;2023-07-02T21:33:08;18.50;99.90
8988;DHT22;4529;51.360;12.474;2023-07-02T21:38:11;18.30;99.90
8988;DHT22;4529;51.360;12.474;2023-07-02T21:43:15;18.10;99.90
8988;DHT22;4529;51.360;12.474;2023-07-02T21:48:18;18.00;99.90
8988;DHT22;4529;51.360;12.474;2023-07-02T21:53:22;17.80;99.90
8988;DHT22;4529;51.360;12.474;2023-07-02T21:58:25;17.70;99.90
8988;DHT22;4529;51.360;12.474;2023-07-02T22:03:29;17.60;99.90
8988;DHT22;4529;51.360;12.474;2023-07-02T22:08:32;17.60;99.90
8988;DHT22;4529;51.360;12.474;2023-07-02T22:13:36;17.50;99.90
8988;DHT22;4529;51.360;12.474;2023-07-02T22:18:39;17.40;99.90
8988;DHT22;4529;51.360;12.474;2023-07-02T22:23:43;17.40;99.90
8988;DHT22;4529;51.360;12.474;2023-07-02T22:28:46;17.40;99.90
8988;DHT22;4529;51.360;12.474;2023-07-02T22:33:50;17.50;99.90
8988;DHT22;4529;51.360;12.474;2023-07-02T22:38:53;17.40;99.90
8988;DHT22;4529;51.360;12.474;2023-07-02T22:43:58;17.30;99.90
8988;DHT22;4529;51.360;12.474;2023-07-02T22:49:02;17.30;99.90
8988;DHT22;4529;51.360;12.474;2023-07-02T22:54:05;17.10;99.90
8988;DHT22;4529;51.360;12.474;2023-07-02T22:59:09;16.90;99.90
8988;DHT22;4529;51.360;12.474;2023-07-02T23:04:12;16.90;99.90
8988;DHT22;4529;51.360;12.474;2023-07-02T23:09:16;16.80;99.90
8988;DHT22;4529;51.360;12.474;2023-07-02T23:14:19;16.80;99.90
8988;DHT22;4529;51.360;12.474;2023-07-02T23:19:23;17.00;99.90
8988;DHT22;4529;51.360;12.474;2023-07-02T23:24:26;17.00;99.90
8988;DHT22;4529;51.360;12.474;2023-07-02T23:29:30;17.10;99.90
8988;DHT22;4529;51.360;12.474;2023-07-02T23:34:33;17.20;99.90
8988;DHT22;4529;51.360;12.474;2023-07-02T23:39:37;17.20;99.90
8988;DHT22;4529;51.360;12.474;2023-07-02T23:44:40;17.30;99.90
8988;DHT22;4529;51.360;12.474;2023-07-02T23:49:43;17.40;99.90
8988;DHT22;4529;51.360;12.474;2023-07-02T23:54:47;17.20;99.90
8988;DHT22;4529;51.360;12.474;2023-07-02T23:59:50;17.10;99.90
